Time;durP1;ratioP1;P1;durP2;ratioP2;P2;SDS_P1;SDS_P2;PMS_P1;PMS_P2;Temp;Humidity;BMP_temperature;BMP_pressure;BME280_temperature;BME280_humidity;BME280_pressure;Samples;Min_cycle;Max_cycle;Signal;HPM_P1;HPM_P2
2023/06/10 00:00:39;;;;;;;5.60;3.30;;;;;;;22.19;48.25;99969.90;106332;1252;64245;-78
2023/06/10 00:03:05;;;;;;;5.70;3.60;;;;;;;22.14;48.41;99967.18;105792;1253;60500;-78
2023/06/10 00:05:34;;;;;;;6.00;3.20;;;;;;;22.07;48.36;99966.95;106062;1253;60429;-80
2023/06/10 00:08:06;;;;;;;7.20;3.50;;;;;;;22.01;48.47;99963.65;105861;1253;65122;-79
2023/06/10 00:10:38;;;;;;;7.80;3.60;;;;;;;21.92;48.63;99964.98;106382;1251;60435;-79
2023/06/10 00:13:07;;;;;;;5.30;3.40;;;;;;;21.85;48.84;99962.66;106006;1254;65122;-80
2023/06/10 00:15:35;;;;;;;6.00;3.90;;;;;;;21.79;48.74;99958.27;106093;1258;60351;-78
2023/06/10 00:18:03;;;;;;;7.30;4.00;;;;;;;21.74;48.83;99959.08;106457;1251;60418;-79
2023/06/10 00:20:30;;;;;;;5.20;4.20;;;;;;;21.70;48.82;99958.44;105856;1258;65197;-78
2023/06/10 00:23:01;;;;;;;10.40;4.60;;;;;;;21.68;48.63;99955.89;106113;1254;60450;-78
2023/06/10 00:25:27;;;;;;;5.20;4.30;;;;;;;21.62;48.80;99949.67;105879;1251;63938;-79
2023/06/10 00:27:55;;;;;;;8.20;4.40;;;;;;;21.55;49.04;99944.91;105702;1256;60379;-80
2023/06/10 00:30:21;;;;;;;9.60;4.50;;;;;;;21.48;49.09;99943.31;105689;1255;60426;-80
2023/06/10 00:32:49;;;;;;;8.00;4.60;;;;;;;21.39;49.27;99943.37;105872;1256;65502;-77
2023/06/10 00:35:16;;;;;;;8.00;4.50;;;;;;;21.33;49.31;99942.64;105956;1255;60248;-78
2023/06/10 00:37:43;;;;;;;7.60;4.20;;;;;;;21.29;49.12;99941.35;105933;1256;63860;-78
2023/06/10 00:40:10;;;;;;;8.00;4.50;;;;;;;21.23;49.15;99939.25;105896;1258;60298;-79
2023/06/10 00:42:37;;;;;;;7.60;4.80;;;;;;;21.16;49.43;99936.41;105870;1253;60479;-79
2023/06/10 00:45:05;;;;;;;5.90;4.60;;;;;;;21.10;49.62;99939.31;105930;1255;65023;-78
2023/06/10 00:47:31;;;;;;;8.80;4.80;;;;;;;21.06;49.61;99939.85;105936;1253;60448;-79
2023/06/10 00:49:58;;;;;;;7.30;4.60;;;;;;;21.04;49.50;99938.71;105758;1259;63787;-78
2023/06/10 00:52:27;;;;;;;9.30;5.10;;;;;;;21.04;49.51;99935.54;105895;1251;61035;-78
2023/06/10 00:54:53;;;;;;;7.50;4.60;;;;;;;21.03;49.52;99935.77;105870;1253;60399;-79
2023/06/10 00:57:20;;;;;;;6.50;4.40;;;;;;;21.01;49.62;99938.77;105887;1251;63683;-78
2023/06/10 00:59:48;;;;;;;5.00;4.20;;;;;;;20.96;49.63;99937.15;105945;1254;60429;-78
2023/06/10 01:02:15;;;;;;;6.10;4.30;;;;;;;20.91;49.83;99934.48;105733;1251;62804;-79
2023/06/10 01:04:41;;;;;;;6.50;4.60;;;;;;;20.89;50.04;99930.89;105971;1254;60448;-80
2023/06/10 01:07:31;;;;;;;6.80;5.00;;;;;;;20.86;50.17;99928.39;105916;1252;60504;-81
2023/06/10 01:10:21;;;;;;;8.80;4.50;;;;;;;20.84;50.26;99929.63;106024;1256;73888;-80
2023/06/10 01:13:02;;;;;;;6.10;4.60;;;;;;;20.75;50.28;99929.58;106003;1253;60512;-82
2023/06/10 01:15:30;;;;;;;6.40;4.80;;;;;;;20.68;50.60;99929.70;105931;1252;64141;-80
2023/06/10 01:17:59;;;;;;;5.80;4.90;;;;;;;20.60;50.72;99927.80;105998;1251;60408;-79
2023/06/10 01:20:29;;;;;;;6.30;4.60;;;;;;;20.55;51.12;99927.52;105980;1254;60423;-79
2023/06/10 01:22:57;;;;;;;7.30;4.90;;;;;;;20.51;51.32;99928.41;105891;1251;65420;-79
2023/06/10 01:25:28;;;;;;;5.50;4.60;;;;;;;20.47;51.50;99925.84;105899;1256;60424;-79
2023/06/10 01:28:01;;;;;;;5.30;4.70;;;;;;;20.44;51.50;99931.26;105906;1252;64122;-79
2023/06/10 01:30:30;;;;;;;;;;;;;;;20.40;51.71;99932.73;105888;1253;60550;-76
2023/06/10 01:32:57;;;;;;;8.60;4.00;;;;;;;20.37;51.83;99932.16;105896;1253;60314;-78
2023/06/10 01:35:25;;;;;;;7.70;4.30;;;;;;;20.37;52.16;99933.95;105904;1251;65427;-78
2023/06/10 01:37:53;;;;;;;4.40;3.90;;;;;;;20.39;52.26;99933.14;106066;1253;60483;-78
2023/06/10 01:40:21;;;;;;;6.80;4.00;;;;;;;20.44;52.43;99934.13;105881;1253;63970;-78
2023/06/10 01:42:47;;;;;;;4.80;4.20;;;;;;;20.44;52.65;99935.70;105688;1253;60498;-78
2023/06/10 01:45:14;;;;;;;5.70;4.30;;;;;;;20.46;52.84;99938.36;105799;1254;60499;-78
2023/06/10 01:47:40;;;;;;;8.90;4.60;;;;;;;20.48;52.88;99936.98;106009;1251;64992;-78
2023/06/10 01:50:07;;;;;;;7.10;4.20;;;;;;;20.51;52.92;99936.08;105930;1256;60530;-78
2023/06/10 01:52:35;;;;;;;7.20;4.10;;;;;;;20.51;53.17;99932.87;106042;1252;64117;-78
2023/06/10 01:55:02;;;;;;;6.60;4.30;;;;;;;20.51;53.16;99934.35;105967;1256;60398;-78
2023/06/10 01:57:30;;;;;;;9.10;4.30;;;;;;;20.51;53.27;99932.94;106056;1252;60782;-80
2023/06/10 01:59:56;;;;;;;9.70;4.30;;;;;;;20.51;53.37;99934.02;105823;1253;65177;-77
2023/06/10 02:02:24;;;;;;;6.60;4.70;;;;;;;20.49;53.52;99932.03;105809;1253;60518;-79
2023/06/10 02:04:51;;;;;;;5.80;4.40;;;;;;;20.47;53.58;99934.13;106049;1251;63884;-79
2023/06/10 02:07:20;;;;;;;6.20;4.60;;;;;;;20.45;53.66;99937.19;105914;1256;60537;-78
2023/06/10 02:09:48;;;;;;;13.30;4.70;;;;;;;20.41;53.75;99937.15;105781;1256;60377;-79
2023/06/10 02:12:15;;;;;;;6.30;4.80;;;;;;;20.37;53.89;99938.27;105913;1256;65609;-79
2023/06/10 02:14:44;;;;;;;9.60;4.90;;;;;;;20.36;54.04;99937.80;105971;1257;60439;-79
2023/06/10 02:17:12;;;;;;;7.50;4.60;;;;;;;20.35;54.18;99936.35;105798;1257;63766;-77
2023/06/10 02:19:42;;;;;;;7.30;4.90;;;;;;;20.33;54.16;99937.99;105980;1256;60821;-78
2023/06/10 02:22:10;;;;;;;6.50;4.80;;;;;;;20.32;54.33;99939.55;106068;1252;60571;-78
2023/06/10 02:24:37;;;;;;;6.30;4.90;;;;;;;20.31;54.47;99936.62;106017;1254;63849;-79
2023/06/10 02:27:06;;;;;;;8.60;4.60;;;;;;;20.33;54.63;99934.85;105874;1256;60355;-79
2023/06/10 02:29:35;;;;;;;7.10;5.00;;;;;;;20.35;54.81;99935.08;105822;1254;63910;-78
2023/06/10 02:32:02;;;;;;;8.30;4.90;;;;;;;20.39;54.86;99935.19;105838;1251;59342;-78
2023/06/10 02:34:29;;;;;;;7.00;4.90;;;;;;;20.41;55.24;99939.74;105695;1254;60431;-79
2023/06/10 02:36:57;;;;;;;9.00;4.50;;;;;;;20.43;55.29;99942.16;105734;1251;65059;-78
2023/06/10 02:39:24;;;;;;;6.80;4.90;;;;;;;20.46;55.38;99940.55;105805;1251;60696;-79
2023/06/10 02:41:51;;;;;;;5.60;4.70;;;;;;;20.51;55.45;99942.39;105970;1256;64041;-79
2023/06/10 02:44:18;;;;;;;9.60;5.10;;;;;;;20.55;55.45;99942.88;106083;1254;60329;-79
2023/06/10 02:46:45;;;;;;;8.10;5.00;;;;;;;20.60;55.69;99943.53;105982;1253;61085;-79
2023/06/10 02:49:12;;;;;;;8.70;4.40;;;;;;;20.65;55.97;99943.81;106016;1252;64954;-79
2023/06/10 02:51:39;;;;;;;6.20;4.30;;;;;;;20.70;56.05;99939.62;105965;1253;60408;-79
2023/06/10 02:54:06;;;;;;;7.10;4.60;;;;;;;20.73;56.14;99940.54;105775;1254;63765;-80
2023/06/10 02:56:34;;;;;;;7.00;4.80;;;;;;;20.78;56.28;99938.88;105649;1253;60396;-79
2023/06/10 02:59:02;;;;;;;7.60;4.60;;;;;;;20.83;56.40;99943.41;105709;1253;60412;-79
2023/06/10 03:01:31;;;;;;;7.50;4.50;;;;;;;20.87;56.35;99944.77;105839;1254;65249;-80
2023/06/10 03:04:05;;;;;;;8.70;4.90;;;;;;;20.92;56.24;99945.06;105965;1254;60477;-78
2023/06/10 03:06:33;;;;;;;7.00;4.70;;;;;;;20.97;56.29;99946.41;105983;1256;63935;-78
2023/06/10 03:09:09;;;;;;;6.20;4.20;;;;;;;21.01;56.33;99950.77;105914;1258;60498;-79
2023/06/10 03:11:37;;;;;;;6.60;4.50;;;;;;;21.06;56.33;99951.66;105823;1252;60543;-80
2023/06/10 03:14:04;;;;;;;6.50;4.50;;;;;;;21.12;56.42;99950.52;105823;1254;65120;-79
2023/06/10 03:16:32;;;;;;;7.30;4.50;;;;;;;21.20;56.44;99947.36;106123;1255;60473;-79
2023/06/10 03:18:59;;;;;;;6.00;4.50;;;;;;;21.27;56.36;99943.45;105838;1253;63886;-80
2023/06/10 03:21:26;;;;;;;8.00;4.60;;;;;;;21.32;56.59;99943.06;105763;1256;60451;-80
2023/06/10 03:23:54;;;;;;;8.40;4.80;;;;;;;21.38;56.75;99943.41;105941;1251;60474;-80
2023/06/10 03:26:21;;;;;;;6.40;4.50;;;;;;;21.45;56.80;99945.13;105943;1256;65007;-79
2023/06/10 03:28:48;;;;;;;7.10;4.00;;;;;;;21.53;56.83;99944.36;105922;1253;60535;-80
2023/06/10 03:31:16;;;;;;;5.60;4.40;;;;;;;21.59;56.83;99947.59;105787;1256;64428;-79
2023/06/10 03:33:43;;;;;;;8.10;4.50;;;;;;;21.65;56.93;99949.98;105668;1253;60429;-78
2023/06/10 03:36:10;;;;;;;6.20;4.50;;;;;;;21.72;56.84;99947.17;105820;1252;60472;-81
2023/06/10 03:38:37;;;;;;;6.20;4.50;;;;;;;21.79;56.91;99948.17;105755;1256;65249;-79
2023/06/10 03:41:04;;;;;;;7.20;4.60;;;;;;;21.86;56.96;99946.65;105838;1254;60534;-79
2023/06/10 03:43:31;;;;;;;6.20;4.80;;;;;;;21.92;56.91;99947.08;105845;1251;64130;-79
2023/06/10 03:45:58;;;;;;;6.50;4.50;;;;;;;21.98;57.12;99946.69;105877;1253;60367;-79
2023/06/10 03:48:25;;;;;;;6.50;4.20;;;;;;;22.04;57.09;99948.44;105700;1253;60479;-79
2023/06/10 03:50:52;;;;;;;7.70;4.10;;;;;;;22.11;57.19;99952.17;106002;1251;64952;-80
2023/06/10 03:53:21;;;;;;;6.00;4.40;;;;;;;22.18;57.23;99955.46;105813;1253;60537;-79
2023/06/10 03:55:48;;;;;;;7.30;4.80;;;;;;;22.22;57.35;99954.84;105643;1257;63783;-79
2023/06/10 03:58:19;;;;;;;7.90;4.50;;;;;;;22.28;57.47;99958.19;105936;1253;60443;-82
2023/06/10 04:00:46;;;;;;;9.90;4.90;;;;;;;22.35;57.47;99959.05;105973;1252;60463;-78
2023/06/10 04:03:14;;;;;;;6.70;4.90;;;;;;;22.44;57.52;99955.64;105776;1256;65216;-80
2023/06/10 04:05:44;;;;;;;8.20;4.60;;;;;;;22.54;57.44;99959.86;105791;1253;60547;-80
2023/06/10 04:08:11;;;;;;;11.80;4.80;;;;;;;22.63;57.43;99956.90;105885;1251;63846;-80
2023/06/10 04:10:39;;;;;;;12.90;5.20;;;;;;;22.71;57.22;99956.14;105963;1253;60411;-79
2023/06/10 04:13:06;;;;;;;9.70;4.90;;;;;;;22.79;57.05;99955.79;105696;1257;60574;-79
2023/06/10 04:15:38;;;;;;;10.10;5.10;;;;;;;22.88;56.75;99956.78;105703;1257;65131;-79
2023/06/10 04:18:08;;;;;;;10.90;4.70;;;;;;;22.97;56.69;99956.13;106052;1256;60469;-80
2023/06/10 04:20:37;;;;;;;12.00;4.90;;;;;;;23.05;56.72;99954.95;105733;1256;63802;-79
2023/06/10 04:23:04;;;;;;;10.30;4.40;;;;;;;23.16;56.68;99959.79;105683;1253;60350;-80
2023/06/10 04:25:31;;;;;;;10.20;4.80;;;;;;;23.26;56.53;99957.09;105922;1256;60533;-79
2023/06/10 04:27:58;;;;;;;10.10;4.70;;;;;;;23.36;56.28;99949.99;105718;1251;65337;-80
2023/06/10 04:30:25;;;;;;;9.80;5.40;;;;;;;23.50;56.23;99951.00;105925;1253;60409;-79
2023/06/10 04:32:53;;;;;;;7.50;5.00;;;;;;;23.65;55.90;99953.27;105979;1256;63830;-80
2023/06/10 04:35:20;;;;;;;10.50;4.60;;;;;;;23.78;55.50;99958.89;105878;1259;60616;-80
2023/06/10 04:37:47;;;;;;;8.50;4.80;;;;;;;23.90;55.33;99956.83;105895;1251;60495;-80
2023/06/10 04:40:14;;;;;;;7.20;4.20;;;;;;;24.01;55.25;99952.92;105895;1252;63749;-80
2023/06/10 04:42:42;;;;;;;6.80;4.30;;;;;;;24.11;55.09;99955.63;105844;1258;60754;-79
2023/06/10 04:45:09;;;;;;;9.30;4.30;;;;;;;24.19;54.93;99959.13;105882;1254;64066;-80
2023/06/10 04:47:39;;;;;;;7.10;4.20;;;;;;;24.27;54.71;99963.80;105954;1256;60330;-80
2023/06/10 04:50:06;;;;;;;11.40;4.10;;;;;;;24.36;54.71;99961.29;106040;1253;60508;-79
2023/06/10 04:52:33;;;;;;;10.50;4.00;;;;;;;24.42;54.61;99963.39;105985;1254;65237;-79
2023/06/10 04:55:00;;;;;;;7.40;3.70;;;;;;;24.48;54.32;99967.36;105654;1255;60673;-80
2023/06/10 04:57:27;;;;;;;7.80;4.20;;;;;;;24.55;54.04;99966.52;105848;1256;62532;-79
2023/06/10 04:59:53;;;;;;;8.90;4.60;;;;;;;24.64;53.77;99964.38;105974;1252;60495;-79
2023/06/10 05:02:20;;;;;;;7.50;4.40;;;;;;;24.74;53.63;99961.83;105841;1254;60542;-79
2023/06/10 05:04:47;;;;;;;8.60;4.60;;;;;;;24.84;53.53;99962.67;106042;1255;65124;-79
2023/06/10 05:07:13;;;;;;;12.90;4.30;;;;;;;24.94;53.26;99962.59;105831;1259;60527;-77
2023/06/10 05:09:40;;;;;;;9.50;3.90;;;;;;;25.03;53.18;99966.34;106020;1251;63836;-79
2023/06/10 05:12:08;;;;;;;9.30;4.20;;;;;;;25.11;52.78;99964.76;105904;1256;60421;-79
2023/06/10 05:14:37;;;;;;;9.60;4.00;;;;;;;25.20;52.57;99964.11;105916;1257;60448;-78
2023/06/10 05:17:05;;;;;;;11.10;4.20;;;;;;;25.28;52.69;99964.80;105932;1253;60441;-79
2023/06/10 05:19:33;;;;;;;11.00;4.40;;;;;;;25.38;52.30;99967.24;106026;1255;60561;-80
2023/06/10 05:21:59;;;;;;;9.80;4.20;;;;;;;25.49;51.83;99965.14;105919;1256;63872;-79
2023/06/10 05:24:28;;;;;;;8.90;4.50;;;;;;;25.57;51.51;99962.08;106103;1251;60434;-78
2023/06/10 05:26:54;;;;;;;25.40;4.60;;;;;;;25.68;51.33;99962.00;106076;1251;60454;-78
2023/06/10 05:29:21;;;;;;;17.50;4.70;;;;;;;25.79;50.72;99958.71;105966;1251;64953;-78
2023/06/10 05:31:48;;;;;;;8.80;4.30;;;;;;;25.89;50.43;99956.50;106377;1256;60450;-78
2023/06/10 05:34:15;;;;;;;15.80;4.40;;;;;;;26.00;50.23;99956.83;105992;1255;63910;-79
2023/06/10 05:36:42;;;;;;;7.70;3.90;;;;;;;26.10;49.85;99957.70;105854;1255;60347;-79
2023/06/10 05:39:09;;;;;;;19.10;4.60;;;;;;;26.19;49.49;99954.52;105912;1253;60331;-78
2023/06/10 05:41:36;;;;;;;7.60;3.90;;;;;;;26.29;49.01;99950.65;105931;1256;65104;-78
2023/06/10 05:44:04;;;;;;;9.10;4.20;;;;;;;26.39;48.72;99953.39;105872;1257;60542;-78
2023/06/10 05:46:31;;;;;;;9.10;4.30;;;;;;;26.47;48.95;99954.57;106039;1256;63971;-78
2023/06/10 05:48:57;;;;;;;9.30;4.10;;;;;;;26.54;49.03;99957.48;105887;1251;60482;-78
2023/06/10 05:51:25;;;;;;;8.40;4.00;;;;;;;26.58;48.71;99961.16;105894;1253;60405;-78
2023/06/10 05:53:52;;;;;;;11.80;4.10;;;;;;;26.62;48.70;99957.66;105687;1251;65114;-78
2023/06/10 05:56:18;;;;;;;7.10;4.20;;;;;;;26.66;48.37;99958.30;105758;1256;60454;-78
2023/06/10 05:58:45;;;;;;;11.70;4.30;;;;;;;26.70;48.09;99956.31;105760;1257;60457;-78
2023/06/10 06:01:11;;;;;;;6.40;3.90;;;;;;;26.74;48.17;99959.08;105759;1257;60416;-78
2023/06/10 06:03:39;;;;;;;9.00;4.30;;;;;;;26.78;48.22;99957.20;105836;1251;60415;-79
2023/06/10 06:06:06;;;;;;;7.40;4.40;;;;;;;26.81;48.15;99960.89;105882;1251;65215;-78
2023/06/10 06:08:33;;;;;;;6.60;4.30;;;;;;;26.79;47.75;99955.83;105870;1255;60418;-77
2023/06/10 06:11:00;;;;;;;7.50;4.50;;;;;;;26.78;47.83;99956.95;105776;1257;63864;-77
2023/06/10 06:13:27;;;;;;;7.80;4.30;;;;;;;26.78;48.36;99953.89;105887;1251;60414;-79
2023/06/10 06:15:54;;;;;;;11.10;4.20;;;;;;;26.84;48.53;99950.13;105916;1256;60534;-79
2023/06/10 06:18:21;;;;;;;6.00;3.90;;;;;;;26.91;48.15;99950.70;105981;1256;65163;-79
2023/06/10 06:20:47;;;;;;;6.80;3.60;;;;;;;27.02;47.89;99954.04;106004;1257;60750;-78
2023/06/10 06:23:14;;;;;;;8.40;4.10;;;;;;;27.16;47.41;99952.17;105877;1257;64003;-72
2023/06/10 06:25:41;;;;;;;8.80;4.10;;;;;;;27.32;46.04;99951.08;105952;1251;60565;-76
2023/06/10 06:28:09;;;;;;;12.10;4.00;;;;;;;27.45;44.74;99949.55;106046;1256;60455;-74
2023/06/10 06:30:36;;;;;;;6.90;3.80;;;;;;;27.60;44.27;99947.70;105764;1254;65137;-78
2023/06/10 06:33:03;;;;;;;8.70;3.90;;;;;;;27.79;43.77;99946.05;105865;1256;60532;-79
2023/06/10 06:35:33;;;;;;;12.50;4.00;;;;;;;27.97;42.88;99948.10;105954;1256;63812;-78
2023/06/10 06:38:00;;;;;;;16.50;4.00;;;;;;;28.17;42.29;99944.08;105751;1257;60336;-77
2023/06/10 06:40:28;;;;;;;6.60;3.80;;;;;;;28.34;42.17;99940.89;106007;1255;60449;-76
2023/06/10 06:42:54;;;;;;;9.30;4.00;;;;;;;28.49;40.81;99936.67;105712;1259;65217;-74
2023/06/10 06:45:50;;;;;;;7.90;3.60;;;;;;;28.61;39.13;99937.42;105506;1257;60530;-76
2023/06/10 06:48:17;;;;;;;10.30;4.00;;;;;;;28.69;38.95;99936.98;105820;1254;63826;-75
2023/06/10 06:50:44;;;;;;;11.00;4.20;;;;;;;28.76;38.69;99933.61;105772;1259;60359;-78
2023/06/10 06:53:10;;;;;;;11.80;4.30;;;;;;;28.83;38.40;99933.80;105789;1251;60600;-77
2023/06/10 06:55:37;;;;;;;6.70;3.80;;;;;;;28.88;37.84;99929.00;106011;1256;60527;-75
2023/06/10 06:58:04;;;;;;;8.80;4.20;;;;;;;28.94;37.47;99932.77;105824;1255;214396;-76
2023/06/10 07:00:31;;;;;;;17.00;4.50;;;;;;;29.03;36.74;99931.96;105666;1257;63851;-76
2023/06/10 07:02:58;;;;;;;8.60;4.80;;;;;;;29.10;35.86;99930.35;105776;1257;60476;-76
2023/06/10 07:05:27;;;;;;;11.30;4.70;;;;;;;29.13;35.69;99929.08;106372;1251;60445;-76
2023/06/10 07:07:55;;;;;;;13.40;5.10;;;;;;;29.22;35.79;99928.05;106419;1251;65274;-77
2023/06/10 07:10:23;;;;;;;12.20;4.50;;;;;;;29.33;35.04;99926.21;106160;1256;60533;-73
2023/06/10 07:12:51;;;;;;;8.60;3.90;;;;;;;29.41;33.94;99929.49;105823;1256;64055;-72
2023/06/10 07:15:18;;;;;;;9.70;4.00;;;;;;;29.39;34.05;99930.84;106408;1256;60428;-75
2023/06/10 07:17:45;;;;;;;9.50;5.00;;;;;;;29.37;34.10;99931.70;106129;1252;60329;-75
2023/06/10 07:20:12;;;;;;;10.80;5.00;;;;;;;29.35;33.86;99931.30;106103;1256;65196;-75
2023/06/10 07:22:39;;;;;;;8.60;5.30;;;;;;;29.30;33.72;99932.70;105988;1253;60535;-78
2023/06/10 07:25:06;;;;;;;8.10;4.20;;;;;;;29.24;33.53;99935.09;105773;1257;63719;-76
2023/06/10 07:27:33;;;;;;;8.20;4.10;;;;;;;29.21;33.76;99934.61;105756;1254;60529;-76
2023/06/10 07:30:01;;;;;;;6.20;4.00;;;;;;;29.21;33.59;99935.05;105796;1251;60517;-74
2023/06/10 07:32:29;;;;;;;6.10;3.90;;;;;;;29.24;33.21;99934.02;106120;1256;65121;-74
2023/06/10 07:34:59;;;;;;;5.00;3.00;;;;;;;29.29;33.30;99936.73;105821;1257;60301;-81
2023/06/10 07:37:26;;;;;;;4.90;3.00;;;;;;;29.36;32.90;99938.32;105754;1257;64046;-74
2023/06/10 07:39:53;;;;;;;7.20;3.20;;;;;;;29.41;32.21;99934.77;105701;1270;60459;-77
2023/06/10 07:42:19;;;;;;;7.60;3.10;;;;;;;29.43;31.86;99930.89;105778;1257;60409;-78
2023/06/10 07:44:46;;;;;;;4.20;3.00;;;;;;;29.49;32.12;99932.98;105567;1257;65384;-76
2023/06/10 07:47:13;;;;;;;5.30;2.90;;;;;;;29.61;32.16;99933.17;105757;1260;60531;-79
2023/06/10 07:49:41;;;;;;;5.90;2.90;;;;;;;29.72;31.75;99927.16;106053;1256;63846;-77
2023/06/10 07:52:08;;;;;;;5.80;2.60;;;;;;;29.80;31.35;99928.11;106116;1251;60355;-75
2023/06/10 07:54:35;;;;;;;7.30;3.20;;;;;;;29.83;30.98;99927.02;106005;1257;60489;-75
2023/06/10 07:57:02;;;;;;;5.90;2.90;;;;;;;29.82;31.07;99927.96;105810;1251;65136;-77
2023/06/10 07:59:29;;;;;;;9.50;2.80;;;;;;;29.88;31.67;99925.51;106113;1251;60534;-77
2023/06/10 08:01:55;;;;;;;6.90;3.00;;;;;;;30.04;31.78;99925.21;106107;1251;64129;-76
2023/06/10 08:04:22;;;;;;;8.90;3.00;;;;;;;30.22;31.40;99919.42;106014;1256;60450;-81
2023/06/10 08:06:49;;;;;;;7.60;3.00;;;;;;;30.41;30.79;99920.63;106366;1257;60423;-78
2023/06/10 08:09:18;;;;;;;6.60;2.60;;;;;;;30.58;30.36;99921.45;106170;1257;65255;-80
2023/06/10 08:11:47;;;;;;;4.60;2.70;;;;;;;30.72;29.78;99922.97;105987;1257;60416;-72
2023/06/10 08:14:13;;;;;;;5.60;2.80;;;;;;;30.78;29.59;99922.77;105927;1251;64146;-69
2023/06/10 08:16:42;;;;;;;8.50;3.10;;;;;;;30.85;29.95;99923.03;105888;1255;60310;-76
2023/06/10 08:19:09;;;;;;;9.50;3.10;;;;;;;30.93;30.13;99920.49;105847;1251;60533;-74
2023/06/10 08:21:39;;;;;;;6.70;3.10;;;;;;;31.00;29.57;99921.23;105714;1256;65203;-73
2023/06/10 08:24:07;;;;;;;8.70;4.10;;;;;;;31.09;29.68;99920.60;105607;1257;60380;-78
2023/06/10 08:26:34;;;;;;;7.50;3.00;;;;;;;31.25;29.58;99915.98;105855;1254;62669;-78
2023/06/10 08:29:00;;;;;;;7.00;2.70;;;;;;;31.42;29.27;99920.02;105775;1251;60307;-80
2023/06/10 08:31:27;;;;;;;12.80;2.80;;;;;;;31.48;29.05;99923.04;106102;1251;60434;-79
2023/06/10 08:33:54;;;;;;;8.00;3.00;;;;;;;31.50;28.63;99920.58;105973;1251;63719;-79
2023/06/10 08:36:21;;;;;;;7.80;2.80;;;;;;;31.46;28.51;99920.66;105937;1255;60483;-77
2023/06/10 08:38:47;;;;;;;8.20;2.90;;;;;;;31.41;28.83;99920.66;105803;1258;62667;-82
2023/06/10 08:41:14;;;;;;;7.00;3.80;;;;;;;31.42;29.09;99918.76;105890;1251;60481;-81
2023/06/10 08:43:59;;;;;;;9.60;3.10;;;;;;;31.44;29.03;99919.08;105998;1251;60422;-81
2023/06/10 08:46:29;;;;;;;4.70;2.90;;;;;;;31.41;28.52;99917.94;105758;1257;65190;-82
2023/06/10 08:48:56;;;;;;;10.20;3.30;;;;;;;31.30;28.37;99918.19;105866;1259;60447;-81
2023/06/10 08:51:24;;;;;;;8.20;3.60;;;;;;;31.18;28.61;99914.64;105868;1251;63870;-87
2023/06/10 08:54:00;;;;;;;4.30;3.30;;;;;;;31.14;28.97;99912.77;106253;1258;60357;-84
2023/06/10 08:56:28;;;;;;;6.90;3.20;;;;;;;31.13;28.16;99910.09;107729;1251;60375;-79
2023/06/10 08:58:56;;;;;;;86.40;6.00;;;;;;;31.06;28.00;99909.79;106943;1254;67179;-81
2023/06/10 09:01:24;;;;;;;9.70;4.60;;;;;;;31.01;28.54;99908.53;105949;1253;60329;-78
2023/06/10 09:03:51;;;;;;;6.40;4.40;;;;;;;31.00;28.65;99906.67;105990;1251;62542;-84
2023/06/10 09:06:18;;;;;;;9.80;4.50;;;;;;;31.03;28.55;99910.98;106459;1251;60401;-83
2023/06/10 09:08:44;;;;;;;10.70;4.40;;;;;;;31.05;27.78;99906.35;105989;1254;60534;-82
2023/06/10 09:11:11;;;;;;;8.60;3.90;;;;;;;31.11;28.25;99907.13;105821;1253;60483;-85
2023/06/10 09:13:38;;;;;;;8.20;3.70;;;;;;;31.31;27.85;99906.39;105823;1251;60735;-88
2023/06/10 09:16:05;;;;;;;5.80;3.10;;;;;;;31.58;27.37;99907.31;105996;1251;64028;-85
2023/06/10 09:18:34;;;;;;;6.20;2.90;;;;;;;31.76;26.77;99910.09;105738;1254;60315;-85
2023/06/10 09:21:01;;;;;;;6.40;2.90;;;;;;;31.86;26.23;99905.94;105977;1252;60402;-83
2023/06/10 09:23:27;;;;;;;4.00;2.70;;;;;;;31.97;26.34;99906.16;106023;1251;65364;-85
2023/06/10 09:26:00;;;;;;;11.30;2.90;;;;;;;32.15;26.84;99903.29;105989;1251;60507;-84
2023/06/10 09:28:26;;;;;;;6.80;3.00;;;;;;;32.44;26.70;99902.43;105897;1251;63709;-84
2023/06/10 09:31:04;;;;;;;8.00;3.10;;;;;;;32.70;26.07;99903.17;106013;1251;60413;-83
2023/06/10 09:33:30;;;;;;;7.90;3.00;;;;;;;32.87;25.50;99898.42;105747;1260;60447;-83
2023/06/10 09:36:01;;;;;;;14.40;3.10;;;;;;;32.98;25.64;99894.56;105920;1257;65262;-83
2023/06/10 09:38:33;;;;;;;4.60;3.20;;;;;;;33.13;25.42;99896.81;105934;1254;60341;-84
2023/06/10 09:41:03;;;;;;;6.40;2.70;;;;;;;33.31;24.84;99898.53;105918;1254;63858;-85
2023/06/10 09:43:41;;;;;;;10.50;3.00;;;;;;;33.48;24.53;99895.36;105584;1254;60365;-84
2023/06/10 09:46:17;;;;;;;6.00;2.60;;;;;;;33.53;24.46;99894.79;105637;1251;60458;-85
2023/06/10 09:48:48;;;;;;;4.40;2.60;;;;;;;33.61;24.41;99891.55;105971;1256;65236;-85
2023/06/10 09:51:16;;;;;;;5.20;2.80;;;;;;;33.73;24.31;99882.73;106170;1255;60633;-85
2023/06/10 09:53:47;;;;;;;4.20;2.40;;;;;;;33.96;24.52;99880.00;106049;1254;63697;-88
2023/06/10 09:56:14;;;;;;;8.50;2.40;;;;;;;34.19;23.97;99882.23;105569;1251;60400;-84
2023/06/10 09:58:43;;;;;;;7.40;2.70;;;;;;;34.16;22.87;99876.06;105768;1259;60460;-84
2023/06/10 10:01:11;;;;;;;5.80;2.50;;;;;;;34.00;23.53;99875.96;105941;1256;65038;-85
2023/06/10 10:03:50;;;;;;;4.00;2.40;;;;;;;34.01;23.96;99877.05;105842;1251;61161;-83
2023/06/10 10:06:18;;;;;;;10.10;2.40;;;;;;;34.11;23.29;99872.67;105600;1254;63036;-85
2023/06/10 10:08:47;;;;;;;6.30;2.60;;;;;;;34.11;23.25;99869.60;105762;1257;60553;-84
2023/06/10 10:11:18;;;;;;;12.10;2.60;;;;;;;34.15;23.50;99867.70;105829;1251;60528;-83
2023/06/10 10:13:46;;;;;;;9.30;2.70;;;;;;;34.21;23.03;99865.10;106005;1251;65051;-84
2023/06/10 10:16:35;;;;;;;9.40;2.30;;;;;;;34.13;22.44;99864.42;106090;1251;60416;-84
2023/06/10 10:19:07;;;;;;;9.30;2.40;;;;;;;33.91;22.10;99862.33;105585;1251;63749;-84
2023/06/10 10:21:37;;;;;;;7.90;2.40;;;;;;;33.62;22.17;99866.89;105626;1261;60436;-83
2023/06/10 10:24:10;;;;;;;4.80;2.20;;;;;;;33.36;21.97;99870.20;105681;1254;60383;-84
2023/06/10 10:26:37;;;;;;;4.00;1.90;;;;;;;33.19;21.65;99868.48;105872;1254;64841;-84
2023/06/10 10:29:11;;;;;;;3.60;2.40;;;;;;;33.02;21.75;99861.80;105988;1257;60539;-84
2023/06/10 10:31:38;;;;;;;6.40;2.10;;;;;;;32.91;22.35;99857.05;105772;1254;63898;-84
2023/06/10 10:34:09;;;;;;;6.80;2.00;;;;;;;33.01;22.75;99856.08;105726;1259;60441;-84
2023/06/10 10:36:37;;;;;;;4.80;2.10;;;;;;;33.21;22.72;99851.61;105747;1251;60487;-83
2023/06/10 10:39:04;;;;;;;3.60;2.00;;;;;;;33.50;23.07;99848.25;105674;1257;65243;-82
2023/06/10 10:41:31;;;;;;;3.10;2.00;;;;;;;33.81;22.83;99844.38;106130;1256;60571;-84
2023/06/10 10:43:58;;;;;;;5.60;2.40;;;;;;;34.06;22.42;99841.96;105770;1251;64028;-83
2023/06/10 10:46:25;;;;;;;5.00;2.50;;;;;;;34.25;22.57;99839.19;105914;1257;60407;-83
2023/06/10 10:48:54;;;;;;;5.40;2.30;;;;;;;34.36;22.32;99841.27;105907;1251;60553;-84
2023/06/10 10:51:23;;;;;;;6.30;2.40;;;;;;;34.42;22.30;99840.60;105786;1257;65247;-84
2023/06/10 10:54:16;;;;;;;5.30;2.70;;;;;;;34.47;22.39;99843.29;106015;1252;60406;-83
2023/06/10 10:57:11;;;;;;;5.50;2.80;;;;;;;34.61;22.65;99841.58;105684;1251;63828;-84
2023/06/10 10:59:52;;;;;;;9.10;2.40;;;;;;;34.82;22.41;99838.30;105810;1257;60341;-84
2023/06/10 11:02:19;;;;;;;8.80;2.50;;;;;;;34.96;22.05;99835.16;105931;1257;60426;-83
2023/06/10 11:04:47;;;;;;;6.70;2.70;;;;;;;35.04;22.16;99830.61;105756;1260;65180;-81
2023/06/10 11:07:19;;;;;;;7.80;2.50;;;;;;;35.10;22.29;99829.84;106007;1256;60453;-83
2023/06/10 11:10:00;;;;;;;4.90;2.70;;;;;;;35.38;22.33;99829.31;105754;1251;63879;-84
2023/06/10 11:12:53;;;;;;;8.40;2.60;;;;;;;35.80;22.10;99827.37;105995;1251;60447;-82
2023/06/10 11:15:26;;;;;;;3.40;2.50;;;;;;;36.21;21.60;99822.60;105737;1251;60546;-82
2023/06/10 11:18:11;;;;;;;4.40;2.40;;;;;;;36.40;20.85;99821.36;105750;1253;65125;-83
2023/06/10 11:20:48;;;;;;;7.30;2.60;;;;;;;36.46;21.08;99819.80;105930;1256;60475;-84
2023/06/10 11:23:25;;;;;;;10.00;2.70;;;;;;;36.66;21.30;99820.22;105616;1251;64069;-83
2023/06/10 11:26:11;;;;;;;11.80;2.90;;;;;;;36.92;20.84;99819.23;105880;1251;60432;-83
2023/06/10 11:28:39;;;;;;;8.10;2.80;;;;;;;37.02;20.62;99814.91;105793;1251;60451;-83
2023/06/10 11:31:06;;;;;;;9.10;3.10;;;;;;;36.97;20.50;99813.16;105955;1252;65235;-83